createdAt,value
2023-06-11T03:01:38.026Z,13.54
2023-06-11T03:04:05.391Z,13.56
2023-06-11T03:06:32.955Z,13.57
2023-06-11T03:08:59.959Z,13.61
2023-06-11T03:11:27.250Z,13.60
2023-06-11T03:13:53.771Z,13.63
2023-06-11T03:16:20.447Z,13.68
2023-06-11T03:18:47.024Z,13.68
2023-06-11T03:21:13.611Z,13.67
2023-06-11T03:23:40.207Z,13.68
2023-06-11T03:26:06.771Z,13.62
2023-06-11T03:28:33.334Z,13.62
2023-06-11T03:30:59.888Z,13.68
2023-06-11T03:33:26.415Z,13.69
2023-06-11T03:35:52.960Z,13.71
2023-06-11T03:38:19.497Z,13.70
2023-06-11T03:40:46.129Z,13.71
2023-06-11T03:43:12.705Z,13.77
2023-06-11T03:45:39.244Z,13.82
2023-06-11T03:48:07.003Z,13.77
2023-06-11T03:50:33.578Z,13.75
2023-06-11T03:53:00.293Z,13.78
2023-06-11T03:55:27.211Z,13.93
2023-06-11T03:57:53.781Z,14.03
2023-06-11T04:00:20.414Z,14.02
2023-06-11T04:02:46.985Z,14.05
2023-06-11T04:05:13.726Z,13.96
2023-06-11T04:07:41.223Z,14.14
2023-06-11T04:10:08.996Z,14.18
2023-06-11T04:12:35.955Z,14.28
2023-06-11T04:15:02.431Z,14.37
2023-06-11T04:17:29.106Z,14.45
2023-06-11T04:19:55.732Z,14.72
2023-06-11T04:22:22.220Z,15.15
2023-06-11T04:24:49.032Z,15.61
2023-06-11T04:27:15.645Z,16.20
2023-06-11T04:29:45.931Z,16.43
2023-06-11T04:32:12.530Z,17.19
2023-06-11T04:34:40.003Z,17.66
2023-06-11T04:37:09.750Z,18.20
2023-06-11T04:39:36.833Z,18.45
2023-06-11T04:42:03.476Z,18.86
2023-06-11T04:44:30.537Z,19.02
2023-06-11T04:46:59.343Z,19.38
2023-06-11T04:49:25.992Z,19.98
2023-06-11T04:51:55.462Z,20.65
2023-06-11T04:54:22.627Z,21.00
2023-06-11T04:56:50.008Z,21.15
2023-06-11T04:59:17.099Z,21.54
2023-06-11T05:01:48.149Z,22.26
2023-06-11T05:04:15.794Z,22.32
2023-06-11T05:06:49.432Z,22.70
2023-06-11T05:09:17.374Z,22.62
2023-06-11T05:11:45.211Z,23.09
2023-06-11T05:14:12.593Z,23.45
2023-06-11T05:16:40.431Z,23.75
2023-06-11T05:19:07.427Z,23.82
2023-06-11T05:21:34.144Z,23.99
2023-06-11T05:24:08.148Z,24.59
2023-06-11T05:26:36.529Z,25.06
2023-06-11T05:29:04.696Z,25.44
2023-06-11T05:31:31.990Z,25.95
2023-06-11T05:33:58.998Z,25.62
2023-06-11T05:36:25.601Z,25.40
2023-06-11T05:38:52.902Z,25.41
2023-06-11T05:41:20.586Z,25.63
2023-06-11T05:43:47.932Z,25.28
2023-06-11T05:46:15.489Z,25.51
2023-06-11T05:48:43.256Z,25.17
2023-06-11T05:51:11.392Z,24.50
2023-06-11T05:53:38.089Z,24.19
2023-06-11T05:56:06.245Z,24.36
2023-06-11T05:58:34.424Z,25.04
2023-06-11T06:01:05.291Z,24.83
2023-06-11T06:03:33.251Z,24.19
2023-06-11T06:06:02.497Z,24.62
2023-06-11T06:08:30.812Z,23.72
2023-06-11T06:10:57.980Z,24.71
2023-06-11T06:13:25.452Z,24.56
2023-06-11T06:15:52.343Z,24.75
2023-06-11T06:18:19.030Z,25.16
2023-06-11T06:20:45.913Z,25.62
2023-06-11T06:23:12.440Z,25.78
2023-06-11T06:25:39.522Z,26.13
2023-06-11T06:28:07.497Z,24.92
2023-06-11T06:30:34.294Z,24.87
2023-06-11T06:33:01.600Z,25.70
2023-06-11T06:35:31.023Z,25.46
2023-06-11T06:37:58.622Z,25.90
2023-06-11T06:40:25.279Z,26.08
2023-06-11T06:42:52.236Z,26.38
2023-06-11T06:45:18.969Z,26.58
2023-06-11T06:55:22.600Z,24.78
2023-06-11T06:57:52.433Z,24.98
2023-06-11T07:04:19.735Z,26.05
2023-06-11T07:10:37.592Z,26.21
2023-06-11T07:13:04.204Z,26.46
2023-06-11T07:15:36.088Z,26.71
2023-06-11T07:25:32.203Z,23.98
2023-06-11T07:28:05.049Z,24.41
2023-06-11T07:30:33.478Z,22.80
2023-06-11T07:33:03.382Z,22.95
2023-06-11T07:35:30.709Z,23.81
2023-06-11T07:37:58.077Z,24.27
2023-06-11T07:40:24.849Z,22.76
2023-06-11T07:42:51.356Z,23.05
2023-06-11T07:45:51.933Z,23.83
2023-06-11T07:48:18.468Z,24.56
2023-06-11T08:06:05.876Z,24.95
2023-06-11T08:08:32.531Z,23.82
2023-06-11T08:11:38.508Z,25.22
2023-06-11T08:17:10.686Z,25.75
2023-06-11T08:30:17.333Z,24.25
2023-06-11T08:32:43.949Z,24.06
2023-06-11T08:35:10.674Z,22.95
2023-06-11T08:37:37.224Z,22.10
2023-06-11T08:40:51.456Z,23.21
2023-06-11T08:43:42.985Z,25.07
2023-06-11T09:16:50.276Z,26.36
2023-06-11T09:34:41.580Z,24.31
2023-06-11T10:11:12.622Z,26.01
2023-06-11T10:17:29.361Z,25.03
2023-06-11T10:20:54.814Z,24.84
2023-06-11T10:38:39.682Z,25.94
2023-06-11T10:48:51.221Z,25.87
2023-06-11T10:51:18.487Z,24.80
2023-06-11T11:01:26.541Z,24.38
2023-06-11T11:11:29.985Z,24.28
2023-06-11T11:18:25.435Z,24.14
2023-06-11T11:20:56.146Z,23.93
2023-06-11T11:27:06.645Z,24.48
2023-06-11T11:29:39.717Z,24.23
2023-06-11T11:32:08.834Z,23.72
2023-06-11T11:46:39.357Z,25.27
2023-06-11T11:49:56.639Z,24.85
2023-06-11T11:52:24.671Z,24.14
2023-06-11T12:06:19.925Z,25.31
2023-06-11T12:08:47.198Z,24.37
2023-06-11T12:21:27.862Z,24.49
2023-06-11T12:43:11.974Z,24.88
2023-06-11T12:45:39.097Z,24.75
2023-06-11T12:48:06.608Z,24.17
2023-06-11T13:13:23.301Z,24.93
2023-06-11T13:16:06.188Z,25.09
2023-06-11T13:18:48.151Z,24.72
2023-06-11T13:21:37.560Z,24.94
2023-06-11T13:24:34.789Z,24.53
2023-06-11T13:27:01.293Z,23.90
2023-06-11T13:29:51.137Z,23.74
2023-06-11T13:36:08.143Z,24.37
2023-06-11T13:42:39.843Z,24.77
2023-06-11T13:45:09.566Z,24.07
2023-06-11T13:47:36.512Z,23.79
2023-06-11T13:50:03.264Z,23.41
2023-06-11T14:12:09.238Z,24.83
2023-06-11T14:14:44.259Z,24.70
2023-06-11T14:17:20.115Z,25.04
2023-06-11T14:19:52.079Z,25.24
2023-06-11T14:22:26.845Z,25.46
2023-06-11T14:25:04.986Z,25.25
2023-06-11T14:28:04.579Z,25.51
2023-06-11T14:30:39.537Z,25.20
2023-06-11T14:33:06.802Z,24.55
2023-06-11T14:35:33.393Z,24.29
2023-06-11T14:38:04.189Z,23.91
2023-06-11T14:41:04.713Z,24.12
2023-06-11T14:47:38.145Z,24.65
2023-06-11T14:50:06.157Z,24.21
2023-06-11T14:52:32.860Z,23.77
2023-06-11T14:54:59.663Z,23.46
2023-06-11T14:57:26.728Z,23.22
2023-06-11T14:59:53.460Z,23.23
2023-06-11T15:02:20.052Z,23.02
2023-06-11T15:04:46.817Z,22.96
2023-06-11T15:14:53.238Z,24.26
2023-06-11T15:17:23.323Z,24.21
2023-06-11T15:19:58.995Z,24.45
2023-06-11T15:22:28.934Z,24.56
2023-06-11T15:24:56.801Z,24.61
2023-06-11T15:27:24.808Z,24.70
2023-06-11T15:29:53.383Z,24.37
2023-06-11T15:32:21.573Z,24.42
2023-06-11T15:34:49.199Z,24.53
2023-06-11T15:37:17.430Z,24.52
2023-06-11T15:39:55.050Z,24.33
2023-06-11T15:42:22.814Z,24.58
2023-06-11T15:44:49.796Z,24.72
2023-06-11T15:47:18.442Z,24.65
2023-06-11T15:49:45.841Z,24.38
2023-06-11T15:52:12.936Z,24.78
2023-06-11T15:54:39.751Z,24.85
2023-06-11T15:57:09.834Z,24.90
2023-06-11T15:59:37.154Z,25.00
2023-06-11T16:02:04.194Z,24.79
2023-06-11T16:04:34.571Z,24.79
2023-06-11T16:07:01.841Z,24.75
2023-06-11T16:09:28.993Z,24.47
2023-06-11T16:11:55.897Z,24.48
2023-06-11T16:14:22.467Z,23.75
2023-06-11T16:17:09.559Z,23.52
2023-06-11T17:09:14.784Z,23.30
2023-06-11T17:11:41.856Z,23.01
2023-06-11T17:14:08.546Z,22.70
2023-06-11T17:16:40.138Z,22.64
2023-06-11T17:19:09.705Z,22.64
2023-06-11T17:21:52.975Z,22.76
2023-06-11T17:24:20.786Z,22.58
2023-06-11T17:26:48.730Z,22.55
2023-06-11T17:29:17.286Z,22.47
2023-06-11T17:31:45.690Z,22.48
2023-06-11T17:34:12.460Z,22.41
2023-06-11T17:36:40.503Z,22.31
2023-06-11T17:39:07.221Z,22.24
2023-06-11T17:41:33.973Z,22.14
2023-06-11T17:44:00.581Z,22.12
2023-06-11T17:46:27.450Z,22.06
2023-06-11T17:48:54.890Z,21.89
2023-06-11T17:51:22.275Z,21.87
2023-06-11T17:53:51.200Z,21.77
2023-06-11T17:56:18.124Z,21.79
2023-06-11T17:58:44.923Z,21.60
2023-06-11T18:01:11.592Z,21.80
2023-06-11T18:03:38.310Z,21.77
2023-06-11T18:06:05.079Z,21.83
2023-06-11T18:08:31.681Z,21.82
2023-06-11T18:10:58.383Z,21.80
2023-06-11T18:13:25.056Z,21.81
2023-06-11T18:15:51.732Z,21.76
2023-06-11T18:18:18.467Z,21.69
2023-06-11T18:20:46.034Z,21.62
2023-06-11T18:23:12.739Z,21.49
2023-06-11T18:25:39.314Z,21.40
2023-06-11T18:28:05.909Z,21.27
2023-06-11T18:30:32.439Z,21.11
2023-06-11T18:32:59.065Z,21.10
2023-06-11T18:35:25.688Z,20.96
2023-06-11T18:37:52.267Z,20.97
2023-06-11T18:40:18.761Z,20.83
2023-06-11T18:42:45.294Z,20.78
2023-06-11T18:45:11.973Z,20.69
2023-06-11T18:47:40.223Z,20.51
2023-06-11T18:50:11.077Z,20.38
2023-06-11T18:52:38.215Z,20.29
2023-06-11T18:55:04.937Z,20.26
2023-06-11T18:57:31.430Z,20.25
2023-06-11T18:59:58.751Z,20.17
2023-06-11T19:02:25.372Z,20.06
2023-06-11T19:04:51.873Z,20.08
2023-06-11T19:07:18.461Z,19.89
2023-06-11T19:09:44.944Z,19.86
2023-06-11T19:12:12.292Z,19.83
2023-06-11T19:14:38.855Z,19.71
2023-06-11T19:17:05.660Z,19.72
2023-06-11T19:19:32.262Z,19.63
2023-06-11T19:21:58.936Z,19.47
2023-06-11T19:24:25.761Z,19.43
2023-06-11T19:26:52.300Z,19.36
2023-06-11T19:29:19.860Z,19.32
2023-06-11T19:31:47.427Z,19.34
2023-06-11T19:34:15.100Z,19.27
2023-06-11T19:36:43.460Z,19.25
2023-06-11T19:39:09.942Z,19.15
2023-06-11T19:41:37.025Z,19.10
2023-06-11T19:44:04.123Z,18.92
2023-06-11T19:46:35.505Z,18.90
2023-06-11T19:49:03.488Z,18.69
2023-06-11T19:51:30.077Z,18.64
2023-06-11T19:53:58.010Z,18.60
2023-06-11T19:56:25.084Z,18.56
2023-06-11T19:58:51.817Z,18.37
2023-06-11T20:01:19.160Z,18.48
2023-06-11T20:03:45.868Z,18.42
2023-06-11T20:06:13.300Z,17.89
2023-06-11T20:08:40.030Z,18.25
2023-06-11T20:11:09.809Z,18.19
2023-06-11T20:13:37.191Z,18.11
2023-06-11T20:16:04.411Z,18.01
2023-06-11T20:18:33.838Z,18.00
2023-06-11T20:21:00.305Z,17.86
2023-06-11T20:23:26.836Z,17.87
2023-06-11T20:25:53.454Z,17.84
2023-06-11T20:28:21.066Z,17.88
2023-06-11T20:30:47.552Z,17.91
2023-06-11T20:33:14.172Z,17.96
2023-06-11T20:35:40.782Z,17.85
2023-06-11T20:38:07.303Z,17.78
2023-06-11T20:40:33.833Z,17.62
2023-06-11T20:43:00.355Z,17.66
2023-06-11T20:45:26.830Z,17.67
2023-06-11T20:47:56.132Z,17.58
2023-06-11T20:50:23.741Z,17.44
2023-06-11T20:52:50.922Z,17.46
2023-06-11T20:55:17.728Z,17.36
2023-06-11T20:57:44.260Z,17.30
2023-06-11T21:00:11.366Z,17.30
2023-06-11T21:02:38.063Z,17.21
2023-06-11T21:05:04.829Z,17.13
2023-06-11T21:07:31.505Z,17.07
2023-06-11T21:09:58.055Z,17.06
2023-06-11T21:12:26.120Z,17.04
2023-06-11T21:14:52.690Z,17.01
2023-06-11T21:17:19.237Z,16.98
2023-06-11T21:19:45.741Z,16.93
2023-06-11T21:22:12.271Z,16.90
2023-06-11T21:24:38.766Z,16.88
2023-06-11T21:27:08.446Z,16.80
2023-06-11T21:29:35.028Z,16.76
